createdAt,value
2022-09-11T00:02:06.663Z,14.16
2022-09-11T00:04:33.178Z,14.12
2022-09-11T00:06:59.970Z,14.11
2022-09-11T00:09:26.773Z,14.09
2022-09-11T00:11:53.310Z,14.13
2022-09-11T00:14:20.041Z,14.10
2022-09-11T00:16:47.038Z,14.10
2022-09-11T00:19:16.641Z,14.18
2022-09-11T00:21:43.181Z,14.17
2022-09-11T00:24:09.954Z,14.17
2022-09-11T00:26:37.915Z,14.22
2022-09-11T00:29:05.023Z,14.17
2022-09-11T00:31:32.424Z,14.21
2022-09-11T00:33:59.695Z,14.23
2022-09-11T00:36:29.210Z,14.27
2022-09-11T00:38:57.874Z,14.16
2022-09-11T00:41:27.340Z,14.23
2022-09-11T00:43:56.020Z,14.22
2022-09-11T00:46:32.487Z,14.21
2022-09-11T00:49:02.389Z,14.20
2022-09-11T00:51:33.777Z,14.23
2022-09-11T00:54:02.878Z,14.19
2022-09-11T00:56:31.580Z,14.19
2022-09-11T00:58:59.202Z,14.17
2022-09-11T01:01:26.015Z,14.18
2022-09-11T01:03:52.458Z,14.16
2022-09-11T01:06:21.080Z,14.19
2022-09-11T01:08:47.983Z,13.83
2022-09-11T01:11:32.092Z,14.15
2022-09-11T01:14:26.489Z,14.17
2022-09-11T01:17:10.197Z,14.15
2022-09-11T01:19:46.376Z,14.13
2022-09-11T01:22:50.091Z,14.12
2022-09-11T01:25:29.953Z,14.13
2022-09-11T01:28:00.791Z,14.11
2022-09-11T01:30:35.367Z,14.09
2022-09-11T01:33:06.207Z,14.05
2022-09-11T01:35:44.101Z,14.06
2022-09-11T01:38:36.283Z,14.10
2022-09-11T01:41:09.729Z,14.12
2022-09-11T01:43:44.064Z,14.09
2022-09-11T01:46:18.900Z,14.09
2022-09-11T01:48:48.963Z,14.10
2022-09-11T01:51:29.463Z,14.08
2022-09-11T01:53:59.242Z,14.03
2022-09-11T01:56:39.583Z,14.01
2022-09-11T01:59:10.002Z,14.02
2022-09-11T02:01:40.353Z,14.01
2022-09-11T02:04:20.078Z,13.92
2022-09-11T02:06:52.226Z,13.91
2022-09-11T02:09:28.234Z,13.59
2022-09-11T02:11:58.095Z,13.89
2022-09-11T02:14:30.566Z,13.91
2022-09-11T02:17:04.267Z,13.87
2022-09-11T02:19:31.391Z,13.89
2022-09-11T02:21:58.844Z,13.88
2022-09-11T02:24:27.288Z,13.85
2022-09-11T02:27:07.245Z,13.86
2022-09-11T02:29:34.158Z,13.80
2022-09-11T02:32:01.273Z,13.81
2022-09-11T02:34:32.057Z,13.68
2022-09-11T02:37:23.407Z,13.80
2022-09-11T02:40:02.398Z,13.81
2022-09-11T02:43:08.591Z,13.84
2022-09-11T02:46:10.912Z,13.84
2022-09-11T02:49:01.416Z,13.90
2022-09-11T02:51:55.833Z,13.87
2022-09-11T02:54:45.705Z,13.83
2022-09-11T02:57:26.552Z,13.89
2022-09-11T03:00:00.228Z,13.86
2022-09-11T03:02:28.701Z,13.88
2022-09-11T03:04:56.618Z,13.83
2022-09-11T03:07:27.105Z,13.77
2022-09-11T03:09:53.893Z,13.79
2022-09-11T03:12:22.376Z,13.78
2022-09-11T03:14:51.064Z,13.84
2022-09-11T03:17:17.650Z,13.81
2022-09-11T03:19:44.257Z,13.80
2022-09-11T03:22:10.734Z,13.88
2022-09-11T03:24:37.111Z,13.84
2022-09-11T03:27:05.409Z,13.81
2022-09-11T03:29:31.854Z,13.83
2022-09-11T03:32:01.473Z,13.82
2022-09-11T03:34:29.798Z,13.75
2022-09-11T03:36:56.496Z,13.78
2022-09-11T03:39:24.158Z,13.75
2022-09-11T03:41:51.183Z,13.74
2022-09-11T03:44:17.717Z,13.73
2022-09-11T03:46:44.412Z,13.61
2022-09-11T03:49:10.911Z,13.59
2022-09-11T03:51:37.901Z,13.68
2022-09-11T03:54:04.628Z,13.67
2022-09-11T03:56:32.543Z,13.68
2022-09-11T03:59:02.720Z,13.73
2022-09-11T04:01:30.370Z,13.74
2022-09-11T04:03:57.060Z,13.79
2022-09-11T04:06:29.683Z,13.83
2022-09-11T04:08:56.460Z,13.88
2022-09-11T04:11:23.868Z,13.86
2022-09-11T04:13:51.792Z,13.88
2022-09-11T04:16:19.659Z,13.78
2022-09-11T04:18:54.162Z,13.79
2022-09-11T04:21:21.300Z,13.80
2022-09-11T04:23:56.252Z,13.86
2022-09-11T04:26:26.434Z,13.86
2022-09-11T04:28:59.198Z,13.90
2022-09-11T04:31:27.530Z,13.92
2022-09-11T04:33:57.530Z,13.92
2022-09-11T04:36:29.806Z,13.93
2022-09-11T04:39:00.083Z,13.90
2022-09-11T04:41:27.612Z,13.91
2022-09-11T04:44:04.699Z,13.88
2022-09-11T04:46:34.291Z,13.51
2022-09-11T04:49:02.293Z,13.84
2022-09-11T04:51:35.381Z,13.86
2022-09-11T04:54:02.275Z,13.82
2022-09-11T04:56:34.886Z,13.86
2022-09-11T04:59:05.720Z,13.81
2022-09-11T05:01:35.547Z,13.84
2022-09-11T05:04:02.338Z,13.83
2022-09-11T05:06:30.356Z,13.79
2022-09-11T05:09:05.909Z,13.80
2022-09-11T05:11:34.923Z,13.74
2022-09-11T05:14:01.679Z,13.79
2022-09-11T05:16:31.099Z,13.79
2022-09-11T05:18:58.838Z,13.65
2022-09-11T05:21:26.961Z,13.79
2022-09-11T05:23:55.556Z,13.75
2022-09-11T05:26:27.136Z,13.76
2022-09-11T05:28:55.611Z,13.79
2022-09-11T05:31:24.537Z,13.74
2022-09-11T05:33:55.823Z,13.74
2022-09-11T05:36:23.586Z,13.68
2022-09-11T05:38:50.090Z,13.67
2022-09-11T05:41:17.386Z,13.50
2022-09-11T05:43:44.059Z,13.50
2022-09-11T05:46:13.001Z,13.33
2022-09-11T05:48:39.705Z,13.39
2022-09-11T05:51:10.469Z,13.43
2022-09-11T05:53:37.965Z,13.54
2022-09-11T05:56:13.972Z,13.61
2022-09-11T05:58:40.420Z,13.61
2022-09-11T06:01:10.201Z,13.57
2022-09-11T06:03:38.759Z,13.63
2022-09-11T06:06:08.106Z,13.69
2022-09-11T06:08:35.816Z,13.66
2022-09-11T06:11:07.064Z,13.65
2022-09-11T06:13:40.836Z,13.74
2022-09-11T06:16:18.356Z,13.75
2022-09-11T06:18:49.054Z,13.81
2022-09-11T06:21:22.553Z,13.83
2022-09-11T06:23:57.621Z,13.81
2022-09-11T06:26:26.217Z,13.87
2022-09-11T06:28:54.047Z,13.84
2022-09-11T06:31:24.950Z,13.87
2022-09-11T06:33:53.685Z,13.90
2022-09-11T06:36:23.097Z,13.93
2022-09-11T06:38:55.488Z,14.02
2022-09-11T06:41:24.460Z,13.99
2022-09-11T06:43:53.408Z,14.02
2022-09-11T06:46:22.946Z,14.05
2022-09-11T06:48:50.249Z,14.09
2022-09-11T06:51:23.601Z,14.13
2022-09-11T06:53:57.782Z,14.20
2022-09-11T06:56:27.038Z,14.30
2022-09-11T06:58:53.817Z,14.37
2022-09-11T07:01:24.143Z,14.78
2022-09-11T07:03:56.123Z,14.99
2022-09-11T07:06:26.444Z,14.93
2022-09-11T07:09:02.570Z,14.95
2022-09-11T07:11:43.602Z,14.81
2022-09-11T07:14:10.700Z,14.85
2022-09-11T07:16:39.765Z,14.87
2022-09-11T07:19:10.420Z,14.88
2022-09-11T07:21:38.497Z,14.87
2022-09-11T07:24:05.937Z,14.90
2022-09-11T07:26:36.337Z,14.88
2022-09-11T07:29:08.547Z,15.00
2022-09-11T07:31:38.191Z,15.06
2022-09-11T07:34:05.319Z,15.04
2022-09-11T07:36:34.153Z,15.07
2022-09-11T07:39:03.805Z,15.13
2022-09-11T07:41:45.261Z,15.19
2022-09-11T07:44:18.465Z,15.28
2022-09-11T07:46:44.973Z,15.36
2022-09-11T07:49:12.703Z,15.37
2022-09-11T07:51:41.910Z,15.46
2022-09-11T07:54:10.296Z,15.54
2022-09-11T07:56:38.374Z,15.58
2022-09-11T07:59:08.521Z,15.60
2022-09-11T08:01:37.605Z,15.62
2022-09-11T08:04:08.036Z,15.69
2022-09-11T08:06:37.061Z,15.72
2022-09-11T08:09:09.614Z,15.74
2022-09-11T08:11:42.859Z,15.76
2022-09-11T08:14:13.715Z,15.80
2022-09-11T08:16:41.818Z,15.74
2022-09-11T08:19:14.608Z,15.63
2022-09-11T08:21:41.799Z,15.32
2022-09-11T08:24:08.299Z,15.68
2022-09-11T08:26:36.482Z,15.71
2022-09-11T08:29:03.460Z,15.57
2022-09-11T08:31:33.591Z,15.76
2022-09-11T08:34:01.612Z,15.79
2022-09-11T08:36:29.594Z,15.88
2022-09-11T08:39:00.230Z,15.94
2022-09-11T08:41:42.373Z,16.03
2022-09-11T08:44:09.682Z,16.12
2022-09-11T08:46:40.242Z,16.17
2022-09-11T08:49:21.441Z,16.39
2022-09-11T08:51:49.947Z,16.57
2022-09-11T08:54:33.334Z,17.28
2022-09-11T08:57:18.264Z,17.82
2022-09-11T09:00:14.513Z,18.15
2022-09-11T09:03:08.900Z,18.74
2022-09-11T09:05:49.370Z,19.35
2022-09-11T09:08:35.167Z,19.74
2022-09-11T09:11:22.895Z,20.12
2022-09-11T09:14:20.818Z,20.38
2022-09-11T09:17:11.659Z,20.56
2022-09-11T09:19:49.306Z,20.93
2022-09-11T09:22:30.636Z,21.15
2022-09-11T09:25:01.562Z,21.39
2022-09-11T09:27:36.906Z,21.55
2022-09-11T09:30:07.573Z,21.56
2022-09-11T09:32:43.421Z,21.26
2022-09-11T09:35:27.679Z,20.93
2022-09-11T09:37:54.534Z,20.79
2022-09-11T09:40:24.376Z,20.99
2022-09-11T09:43:07.352Z,21.36
2022-09-11T09:46:08.402Z,21.54
2022-09-11T09:48:39.691Z,21.77
2022-09-11T09:51:10.797Z,21.93
2022-09-11T09:53:55.103Z,21.91
2022-09-11T09:56:23.682Z,21.97
2022-09-11T09:59:08.405Z,21.75
2022-09-11T10:01:51.799Z,21.82
2022-09-11T10:04:30.033Z,21.73
2022-09-11T10:07:14.909Z,21.57
2022-09-11T10:09:51.478Z,21.55
2022-09-11T10:12:28.729Z,21.60
2022-09-11T10:14:59.497Z,21.77
2022-09-11T10:17:32.250Z,22.03
2022-09-11T10:20:23.690Z,22.38
2022-09-11T10:22:51.017Z,22.58
2022-09-11T10:25:21.477Z,22.64
2022-09-11T10:27:59.830Z,22.79
2022-09-11T10:30:32.872Z,22.96
2022-09-11T10:33:03.725Z,22.92
2022-09-11T10:35:32.970Z,22.62
2022-09-11T10:38:19.944Z,22.44
2022-09-11T10:41:12.874Z,22.40
2022-09-11T10:43:47.633Z,22.24
2022-09-11T10:46:25.284Z,21.89
2022-09-11T10:48:57.086Z,21.75
2022-09-11T10:51:26.412Z,21.53
2022-09-11T10:54:22.651Z,21.41
2022-09-11T10:57:14.643Z,21.25
2022-09-11T10:59:55.531Z,21.02
2022-09-11T11:02:41.172Z,20.96
2022-09-11T11:05:27.026Z,20.85
2022-09-11T11:08:17.546Z,21.07
2022-09-11T11:10:56.802Z,21.27
2022-09-11T11:13:40.109Z,21.22
2022-09-11T11:16:47.438Z,21.48
2022-09-11T11:19:31.788Z,21.62
2022-09-11T11:22:15.695Z,21.82
2022-09-11T11:25:04.834Z,21.69
2022-09-11T11:28:00.359Z,21.80
2022-09-11T11:30:31.717Z,22.12
2022-09-11T11:33:22.231Z,22.19
2022-09-11T11:36:04.072Z,22.32
2022-09-11T11:39:08.717Z,21.84
2022-09-11T11:41:51.516Z,21.71
2022-09-11T11:44:39.165Z,21.38
2022-09-11T11:47:09.704Z,20.86
2022-09-11T11:50:11.373Z,20.79
2022-09-11T11:53:01.404Z,20.85
2022-09-11T11:55:40.254Z,20.86
2022-09-11T11:58:24.671Z,20.20
2022-09-11T12:00:58.414Z,20.08
2022-09-11T12:03:47.710Z,19.93
2022-09-11T12:06:15.089Z,19.97
2022-09-11T12:08:44.561Z,20.27
2022-09-11T12:11:15.086Z,20.65
2022-09-11T12:13:47.684Z,20.94
2022-09-11T12:16:14.998Z,21.21
2022-09-11T12:19:05.862Z,21.50
2022-09-11T12:21:32.174Z,21.59
2022-09-11T12:23:59.810Z,21.77
2022-09-11T12:26:27.237Z,21.64
2022-09-11T12:29:11.730Z,21.78
2022-09-11T12:31:50.487Z,21.79
2022-09-11T12:34:18.313Z,21.62
2022-09-11T12:37:03.530Z,21.48
2022-09-11T12:39:53.579Z,20.78
2022-09-11T12:42:26.164Z,20.72
2022-09-11T12:44:52.874Z,20.72
2022-09-11T12:47:42.603Z,20.78
2022-09-11T12:50:22.671Z,20.77
2022-09-11T12:52:54.877Z,20.85
2022-09-11T12:55:33.480Z,20.83
2022-09-11T12:58:07.212Z,20.77
2022-09-11T13:00:40.608Z,20.76
2022-09-11T13:03:17.499Z,20.73
2022-09-11T13:05:52.197Z,20.76
2022-09-11T13:08:22.390Z,20.84
2022-09-11T13:10:52.094Z,20.91
2022-09-11T13:13:35.823Z,21.05
2022-09-11T13:16:22.881Z,21.06
2022-09-11T13:18:51.751Z,20.85
2022-09-11T13:21:22.103Z,21.02
2022-09-11T13:24:00.342Z,20.96
2022-09-11T13:26:31.520Z,21.12
2022-09-11T13:29:00.185Z,21.07
2022-09-11T13:31:35.701Z,21.38
2022-09-11T13:34:20.070Z,21.48
2022-09-11T13:36:48.610Z,21.46
2022-09-11T13:39:17.578Z,21.50
2022-09-11T13:41:46.665Z,21.55
2022-09-11T13:45:02.059Z,21.26
2022-09-11T13:47:31.504Z,21.28
2022-09-11T13:50:01.579Z,21.07
2022-09-11T13:52:32.156Z,21.05
2022-09-11T13:55:10.193Z,20.97
2022-09-11T13:58:17.670Z,21.02
2022-09-11T14:00:50.422Z,20.88
2022-09-11T14:03:21.991Z,20.87
2022-09-11T14:05:51.561Z,20.82
2022-09-11T14:08:25.009Z,20.73
2022-09-11T14:10:56.389Z,20.62
2022-09-11T14:13:44.857Z,20.66
2022-09-11T14:16:14.760Z,20.68
2022-09-11T14:18:48.133Z,20.66
2022-09-11T14:21:22.798Z,20.85
2022-09-11T14:23:57.174Z,20.92
2022-09-11T14:26:33.736Z,21.01
2022-09-11T14:29:24.797Z,21.07
2022-09-11T14:31:53.909Z,21.10
2022-09-11T14:38:47.455Z,21.06
2022-09-11T14:41:13.998Z,21.08
2022-09-11T14:43:41.714Z,20.56
2022-09-11T14:46:08.535Z,21.10
2022-09-11T14:48:35.618Z,21.03
2022-09-11T14:51:09.861Z,20.98
2022-09-11T14:53:39.461Z,21.09
2022-09-11T14:56:36.791Z,21.14
2022-09-11T15:02:17.831Z,21.20
2022-09-11T15:04:47.574Z,21.16
2022-09-11T15:07:15.867Z,21.03
2022-09-11T15:09:43.398Z,21.14
2022-09-11T15:12:11.506Z,21.18
2022-09-11T15:14:55.606Z,21.05
2022-09-11T15:17:24.246Z,20.20
2022-09-11T15:19:51.126Z,19.93
2022-09-11T15:22:18.285Z,20.12
2022-09-11T15:24:44.943Z,20.29
2022-09-11T15:27:11.569Z,20.48
2022-09-11T15:29:39.730Z,20.62
2022-09-11T15:32:07.550Z,20.59
2022-09-11T15:34:34.373Z,20.77
2022-09-11T15:37:00.828Z,20.85
2022-09-11T15:39:28.072Z,20.81
2022-09-11T15:41:55.857Z,20.76
2022-09-11T15:44:25.037Z,20.66
2022-09-11T15:46:52.893Z,20.81
2022-09-11T15:49:21.642Z,20.86
2022-09-11T15:51:49.199Z,20.92
2022-09-11T15:54:15.718Z,20.96
2022-09-11T15:56:43.307Z,20.98
2022-09-11T15:59:12.370Z,20.82
2022-09-11T16:01:39.893Z,21.02
2022-09-11T16:04:08.899Z,20.99
2022-09-11T16:06:38.854Z,20.94
2022-09-11T16:09:09.069Z,20.94
2022-09-11T16:11:45.682Z,20.97
2022-09-11T16:14:23.240Z,20.98
2022-09-11T16:16:50.704Z,20.93
2022-09-11T16:19:19.003Z,20.97
2022-09-11T16:21:46.099Z,20.97
2022-09-11T16:24:14.706Z,20.92
2022-09-11T16:26:43.948Z,20.65
2022-09-11T16:29:15.343Z,20.56
2022-09-11T16:31:42.583Z,20.59
2022-09-11T16:34:09.391Z,20.57
2022-09-11T16:36:39.020Z,20.50
2022-09-11T16:39:07.858Z,20.47
2022-09-11T16:41:34.911Z,20.53
2022-09-11T16:44:01.728Z,20.57
2022-09-11T16:46:28.242Z,20.58
2022-09-11T17:08:59.179Z,20.05
2022-09-11T17:11:27.299Z,20.02
2022-09-11T17:13:53.943Z,19.98
2022-09-11T17:16:24.706Z,19.95
2022-09-11T17:18:54.078Z,19.66
2022-09-11T17:21:23.542Z,19.82
2022-09-11T17:23:51.638Z,19.76
2022-09-11T17:26:18.410Z,19.71
2022-09-11T17:28:47.331Z,19.63
2022-09-11T17:31:15.644Z,19.56
2022-09-11T17:33:43.498Z,19.50
2022-09-11T17:36:11.429Z,19.38
2022-09-11T17:38:39.190Z,19.29
2022-09-11T17:41:08.000Z,19.16
2022-09-11T17:43:36.123Z,19.06
2022-09-11T17:46:04.981Z,18.92
2022-09-11T17:48:32.136Z,18.84
2022-09-11T17:51:07.652Z,18.76
2022-09-11T17:53:38.616Z,18.61
2022-09-11T17:56:07.465Z,18.44
2022-09-11T17:58:34.780Z,18.33
2022-09-11T18:01:02.821Z,18.32
2022-09-11T18:03:31.706Z,18.14
2022-09-11T18:05:58.970Z,17.99
2022-09-11T18:08:26.295Z,18.03
2022-09-11T18:11:01.431Z,17.98
2022-09-11T18:13:29.916Z,17.77
2022-09-11T18:15:56.386Z,17.73
2022-09-11T18:18:23.653Z,17.70
2022-09-11T18:20:53.610Z,17.56
2022-09-11T18:23:22.926Z,17.47
2022-09-11T18:25:51.515Z,17.34
2022-09-11T18:28:19.896Z,17.22
2022-09-11T18:30:47.254Z,17.12
2022-09-11T18:33:16.555Z,16.82
2022-09-11T18:35:43.501Z,16.68
2022-09-11T18:38:11.395Z,16.71
2022-09-11T18:40:39.768Z,16.59
2022-09-11T18:43:08.766Z,16.58
2022-09-11T18:45:36.525Z,16.59
2022-09-11T18:48:04.779Z,16.53
2022-09-11T18:50:31.257Z,16.47
2022-09-11T18:52:57.706Z,16.30
2022-09-11T18:55:24.202Z,15.85
2022-09-11T18:57:50.786Z,16.09
2022-09-11T19:00:18.543Z,16.08
2022-09-11T19:02:46.940Z,15.97
2022-09-11T19:05:18.468Z,15.81
2022-09-11T19:07:48.016Z,15.61
2022-09-11T19:10:14.952Z,15.43
2022-09-11T19:12:41.521Z,15.46
2022-09-11T19:15:09.949Z,15.21
2022-09-11T19:17:38.223Z,15.44
2022-09-11T19:20:07.874Z,15.20
2022-09-11T19:22:35.269Z,15.29
2022-09-11T19:25:04.714Z,15.32
2022-09-11T19:27:31.659Z,15.04
2022-09-11T19:29:59.972Z,14.97
2022-09-11T19:32:28.103Z,15.05
2022-09-11T19:34:54.804Z,15.09
2022-09-11T19:37:21.362Z,14.96
2022-09-11T19:39:50.361Z,14.92
2022-09-11T19:42:16.800Z,14.87
2022-09-11T19:44:44.298Z,14.86
2022-09-11T19:47:11.163Z,14.87
2022-09-11T19:49:37.580Z,14.86
2022-09-11T19:52:04.156Z,14.80
2022-09-11T19:54:30.820Z,14.84
2022-09-11T19:56:57.561Z,14.80
2022-09-11T19:59:24.037Z,14.71
2022-09-11T20:01:50.504Z,14.72
2022-09-11T20:04:18.923Z,14.73
2022-09-11T20:09:30.579Z,14.63
2022-09-11T20:11:57.539Z,14.45
2022-09-11T20:14:24.040Z,14.47
2022-09-11T20:16:50.473Z,14.44
2022-09-11T20:19:17.275Z,14.43
2022-09-11T20:21:43.755Z,14.40
2022-09-11T20:24:10.253Z,14.39
2022-09-11T20:26:36.921Z,14.06
2022-09-11T20:29:11.701Z,14.19
2022-09-11T20:31:46.354Z,14.10
2022-09-11T20:34:13.909Z,14.17
2022-09-11T20:36:40.996Z,14.07
2022-09-11T20:39:07.739Z,13.78
2022-09-11T20:41:35.724Z,13.73
2022-09-11T20:44:04.148Z,13.74
2022-09-11T20:46:30.585Z,13.70
2022-09-11T20:48:57.020Z,13.68
2022-09-11T20:51:24.179Z,13.70
2022-09-11T20:53:51.392Z,13.81
2022-09-11T20:56:20.671Z,13.72
2022-09-11T20:58:47.744Z,13.64
2022-09-11T21:01:17.902Z,13.65
2022-09-11T21:03:49.363Z,13.57
2022-09-11T21:06:16.511Z,13.58
2022-09-11T21:08:44.273Z,13.54
2022-09-11T21:11:11.854Z,13.50
2022-09-11T21:13:40.326Z,13.54
2022-09-11T21:16:09.965Z,13.51
2022-09-11T21:18:38.317Z,13.49
2022-09-11T21:21:05.981Z,13.30
2022-09-11T21:23:32.441Z,13.41
2022-09-11T21:25:59.200Z,13.48
2022-09-11T21:28:25.631Z,13.44
2022-09-11T21:30:52.147Z,13.40
2022-09-11T21:33:18.898Z,13.45
2022-09-11T21:35:52.378Z,13.30
2022-09-11T21:38:24.431Z,13.25
2022-09-11T21:40:51.833Z,13.22
2022-09-11T21:43:18.269Z,13.30
2022-09-11T21:45:44.773Z,13.22
2022-09-11T21:48:11.188Z,13.29
2022-09-11T21:50:38.530Z,13.16
2022-09-11T21:53:05.853Z,13.02
2022-09-11T21:55:40.834Z,13.04
2022-09-11T21:58:07.563Z,12.97
2022-09-11T22:00:42.024Z,13.00
2022-09-11T22:03:10.274Z,12.90
2022-09-11T22:05:43.224Z,12.94
2022-09-11T22:08:14.718Z,12.93
2022-09-11T22:10:46.551Z,12.78
2022-09-11T22:13:13.032Z,12.77
2022-09-11T22:15:44.355Z,12.70
2022-09-11T22:18:10.924Z,12.55
2022-09-11T22:20:38.047Z,12.48
2022-09-11T22:23:05.324Z,12.67
2022-09-11T22:25:32.979Z,12.56
2022-09-11T22:27:59.525Z,12.62
2022-09-11T22:30:27.908Z,12.57
2022-09-11T22:32:55.306Z,12.64
2022-09-11T22:35:22.331Z,12.64
2022-09-11T22:37:48.915Z,12.64
2022-09-11T22:40:15.537Z,12.60
2022-09-11T22:42:42.068Z,12.57
2022-09-11T22:45:08.915Z,12.51
2022-09-11T22:47:35.432Z,12.43
2022-09-11T22:50:01.860Z,12.33
2022-09-11T22:52:29.159Z,12.24
2022-09-11T22:54:55.563Z,12.13
2022-09-11T22:57:21.992Z,12.03
2022-09-11T22:59:48.829Z,12.10
2022-09-11T23:02:15.905Z,12.00
2022-09-11T23:05:03.824Z,12.03
2022-09-11T23:07:30.373Z,12.06
2022-09-11T23:09:56.843Z,12.12
2022-09-11T23:12:23.369Z,11.93
2022-09-11T23:14:49.751Z,12.02
2022-09-11T23:17:16.665Z,12.02
2022-09-11T23:19:43.061Z,11.99
2022-09-11T23:22:10.062Z,11.92
2022-09-11T23:24:36.525Z,11.86
2022-09-11T23:27:03.383Z,11.99
2022-09-11T23:29:29.802Z,11.96
2022-09-11T23:31:56.681Z,11.98
2022-09-11T23:34:23.453Z,12.03
2022-09-11T23:36:49.838Z,12.11
2022-09-11T23:39:16.471Z,12.08
2022-09-11T23:41:42.917Z,11.94
2022-09-11T23:44:09.846Z,11.85
2022-09-11T23:46:36.330Z,11.89
2022-09-11T23:49:02.846Z,11.82
2022-09-11T23:51:29.268Z,11.81
2022-09-11T23:53:55.774Z,11.75
2022-09-11T23:56:22.451Z,11.77
2022-09-11T23:58:49.574Z,11.73
